首页
METAR-TAF:

METAR-TAF

机场 :

Tabarka, 突尼斯

纬度: 36-57N, 经度: 008-45E, 海拔: 20米

当前天气观测

该预报发布于30分钟前的13:00 UTC
风速20节,风向西转西北,有时为32节阵风
温度 13°C
湿度 62%
气压 1010 hPa
能见度10公里或以上
散云层高于2000英尺
散云层高于3000英尺

METAR: DTKA 031300Z 30020G32KT 9999 SCT020 SCT030 13/06 Q1010 NOSIG

时间: 14:30 (13:30 UTC)

预报

该预报发布于1小时和30分钟前的12:00 UTC
预报有效从03日的 13点(UTC)到 03日的 22点(UTC)
风速15节,风向西北
能见度10公里或以上
散云层高于2000英尺
散云层高于3000英尺
成为
从 03日的 16点(UTC)到 03日的 18点(UTC)
风速6节,风向西

TAF: DTKA 031200Z 0313/0322 31015KT 9999 SCT020 SCT030 BECMG 0316/0318 26006KT

超过4000个机场的气象观测和天气预报(METAR&TAF报告)。

可查询的气象台以黄色和红色小点在地图上表示。

将鼠标移到小点上方,可查看气象台名称。

然后点击查看天气观测和预报。

如需切换地图:点击带黑十字的绿色按钮放大地图;点击带横线的绿色按钮缩小地图;或者点击绿色箭头查看邻近地区的地图。


METAR-TAF: